createdAt,value
2018-08-09T00:02:03.166Z,4.03
2018-08-09T00:05:07.377Z,4.20
2018-08-09T00:08:11.577Z,4.03
2018-08-09T00:11:15.789Z,4.90
2018-08-09T00:14:20.006Z,4.73
2018-08-09T00:17:24.224Z,4.53
2018-08-09T00:20:28.444Z,4.83
2018-08-09T00:23:32.620Z,4.40
2018-08-09T00:26:36.837Z,5.13
2018-08-09T00:29:41.027Z,5.13
2018-08-09T00:32:45.227Z,5.50
2018-08-09T00:35:49.412Z,5.90
2018-08-09T00:38:53.732Z,5.40
2018-08-09T00:41:57.961Z,5.50
2018-08-09T00:45:02.172Z,4.97
2018-08-09T00:48:06.501Z,4.87
2018-08-09T00:51:10.716Z,4.40
2018-08-09T00:54:14.913Z,5.77
2018-08-09T00:57:19.129Z,4.80
2018-08-09T01:00:23.348Z,4.87
2018-08-09T01:03:27.540Z,5.10
2018-08-09T01:06:31.752Z,5.23
2018-08-09T01:09:35.957Z,5.60
2018-08-09T01:12:40.172Z,5.23
2018-08-09T01:15:44.484Z,4.47
2018-08-09T01:18:48.707Z,4.67
2018-08-09T01:21:52.930Z,5.00
2018-08-09T01:24:57.158Z,4.00
2018-08-09T01:28:01.373Z,4.33
2018-08-09T01:31:05.593Z,3.83
2018-08-09T01:34:10.738Z,3.70
2018-08-09T01:37:14.960Z,4.20
2018-08-09T01:40:19.169Z,4.17
2018-08-09T01:43:40.636Z,4.10
2018-08-09T01:46:44.845Z,4.03
2018-08-09T01:49:49.048Z,4.50
2018-08-09T01:52:53.262Z,5.33
2018-08-09T01:55:57.657Z,5.43
2018-08-09T01:59:01.878Z,5.43
2018-08-09T02:02:06.141Z,5.20
2018-08-09T02:05:10.849Z,5.77
2018-08-09T02:08:15.073Z,5.77
2018-08-09T02:11:19.264Z,5.47
2018-08-09T02:14:23.497Z,5.30
2018-08-09T02:17:27.711Z,5.03
2018-08-09T02:20:32.005Z,5.13
2018-08-09T02:23:36.197Z,4.60
2018-08-09T02:26:40.382Z,4.40
2018-08-09T02:29:44.601Z,4.40
2018-08-09T02:32:48.863Z,4.40
2018-08-09T02:35:53.074Z,4.57
2018-08-09T02:38:57.289Z,4.80
2018-08-09T02:42:01.513Z,4.43
2018-08-09T02:45:05.732Z,4.33
2018-08-09T02:48:09.934Z,3.87
2018-08-09T02:51:14.162Z,3.40
2018-08-09T02:54:18.382Z,4.30
2018-08-09T02:57:22.600Z,4.37
2018-08-09T03:00:26.830Z,4.40
2018-08-09T03:03:31.053Z,4.40
2018-08-09T03:06:35.334Z,4.80
2018-08-09T03:09:39.584Z,4.67
2018-08-09T03:12:43.842Z,4.53
2018-08-09T03:15:48.064Z,4.80
2018-08-09T03:18:52.646Z,4.40
2018-08-09T03:21:56.911Z,4.80
2018-08-09T03:25:01.157Z,4.33
2018-08-09T03:28:05.393Z,4.83
2018-08-09T03:31:09.619Z,4.33
2018-08-09T03:34:13.861Z,4.43
2018-08-09T03:37:18.061Z,6.23
2018-08-09T03:40:22.300Z,4.77
2018-08-09T03:43:26.537Z,6.03
2018-08-09T03:46:30.777Z,4.37
2018-08-09T03:49:35.118Z,4.57
2018-08-09T03:52:39.326Z,4.33
2018-08-09T03:55:43.587Z,4.23
2018-08-09T03:58:47.806Z,4.63
2018-08-09T04:01:52.018Z,4.93
2018-08-09T04:04:56.282Z,4.70
2018-08-09T04:08:00.482Z,4.87
2018-08-09T04:11:04.748Z,4.97
2018-08-09T04:14:09.320Z,5.63
2018-08-09T04:17:18.975Z,5.20
2018-08-09T04:20:23.246Z,5.67
2018-08-09T04:23:27.441Z,6.13
2018-08-09T04:26:31.732Z,6.67
2018-08-09T04:29:35.940Z,6.07
2018-08-09T04:32:40.173Z,5.73
2018-08-09T04:35:44.471Z,6.37
2018-08-09T04:38:48.716Z,5.60
2018-08-09T04:41:53.018Z,5.77
2018-08-09T04:44:57.246Z,5.67
2018-08-09T04:48:01.509Z,6.07
2018-08-09T04:51:05.746Z,6.30
2018-08-09T04:54:09.985Z,5.80
2018-08-09T04:57:14.224Z,5.63
2018-08-09T05:00:18.472Z,5.73
2018-08-09T05:03:22.689Z,5.07
2018-08-09T05:06:26.930Z,5.30
2018-08-09T05:09:31.155Z,5.07
2018-08-09T05:12:35.397Z,5.07
2018-08-09T05:15:39.628Z,4.70
2018-08-09T05:18:43.874Z,4.97
2018-08-09T05:21:48.141Z,5.27
2018-08-09T05:24:52.358Z,5.37
2018-08-09T05:27:56.603Z,4.80
2018-08-09T05:31:00.829Z,4.97
2018-08-09T05:34:05.152Z,5.07
2018-08-09T05:37:09.346Z,4.50
2018-08-09T05:40:13.636Z,5.63
2018-08-09T05:43:17.885Z,4.47
2018-08-09T05:46:22.126Z,4.20
2018-08-09T05:49:26.408Z,4.43
2018-08-09T05:52:30.623Z,3.43
2018-08-09T05:55:34.829Z,3.43
2018-08-09T05:58:39.061Z,3.53
2018-08-09T06:01:43.338Z,3.10
2018-08-09T06:04:47.583Z,3.40
2018-08-09T06:07:51.808Z,3.50
2018-08-09T06:10:56.061Z,3.47
2018-08-09T06:14:00.307Z,3.90
2018-08-09T06:17:04.545Z,3.90
2018-08-09T06:20:08.761Z,3.50
2018-08-09T06:23:13.028Z,4.13
2018-08-09T06:26:17.276Z,3.43
2018-08-09T06:29:21.486Z,3.20
2018-08-09T06:32:25.698Z,2.93
2018-08-09T06:35:29.913Z,3.40
2018-08-09T06:38:34.097Z,3.30
2018-08-09T06:41:39.031Z,3.73
2018-08-09T06:44:43.240Z,2.97
2018-08-09T06:47:47.451Z,3.40
2018-08-09T06:50:51.673Z,3.30
2018-08-09T06:53:55.885Z,2.93
2018-08-09T06:57:00.091Z,3.10
2018-08-09T07:00:05.804Z,3.07
2018-08-09T07:03:09.976Z,2.63
2018-08-09T07:06:14.212Z,3.03
2018-08-09T07:09:18.404Z,2.33
2018-08-09T07:12:22.617Z,2.67
2018-08-09T07:15:26.830Z,3.07
2018-08-09T07:18:31.085Z,2.47
2018-08-09T07:21:35.316Z,2.63
2018-08-09T07:24:39.548Z,2.10
2018-08-09T07:27:43.740Z,2.00
2018-08-09T07:30:47.960Z,1.53
2018-08-09T07:33:52.228Z,1.83
2018-08-09T07:36:56.482Z,1.90
2018-08-09T07:40:00.714Z,1.60
2018-08-09T07:43:04.976Z,1.77
2018-08-09T07:46:09.857Z,1.60
2018-08-09T07:49:14.097Z,1.53
2018-08-09T07:52:18.314Z,1.90
2018-08-09T07:55:22.553Z,2.07
2018-08-09T07:58:26.921Z,2.03
2018-08-09T08:01:31.147Z,1.83
2018-08-09T08:04:35.372Z,1.70
2018-08-09T08:07:39.609Z,1.50
2018-08-09T08:10:43.844Z,1.80
2018-08-09T08:13:48.072Z,1.77
2018-08-09T08:16:52.316Z,1.70
2018-08-09T08:19:56.548Z,1.60
2018-08-09T08:23:00.772Z,1.70
2018-08-09T08:26:05.082Z,1.97
2018-08-09T08:29:09.336Z,1.57
2018-08-09T08:32:13.561Z,1.67
2018-08-09T08:35:17.801Z,2.10
2018-08-09T08:38:22.045Z,1.67
2018-08-09T08:41:26.314Z,1.53
2018-08-09T08:44:30.554Z,1.87
2018-08-09T08:47:34.779Z,2.20
2018-08-09T08:50:38.998Z,1.93
2018-08-09T08:53:43.249Z,2.10
2018-08-09T08:56:47.496Z,1.93
2018-08-09T08:59:51.752Z,1.90
2018-08-09T09:02:55.977Z,1.83
2018-08-09T09:06:00.193Z,2.23
2018-08-09T09:09:07.882Z,1.80
2018-08-09T09:12:12.104Z,2.50
2018-08-09T09:15:16.552Z,1.90
2018-08-09T09:18:20.800Z,2.87
2018-08-09T09:21:25.049Z,2.27
2018-08-09T09:24:29.372Z,2.07
2018-08-09T09:27:33.700Z,1.60
2018-08-09T09:30:37.962Z,2.30
2018-08-09T09:33:42.184Z,2.37
2018-08-09T09:36:46.485Z,2.50
2018-08-09T09:39:50.727Z,1.63
2018-08-09T09:42:55.006Z,2.07
2018-08-09T09:45:59.256Z,2.00
2018-08-09T09:49:03.582Z,1.90
2018-08-09T09:52:07.805Z,2.17
2018-08-09T09:55:12.043Z,2.10
2018-08-09T09:58:16.342Z,2.30
2018-08-09T10:01:25.728Z,2.13
2018-08-09T10:04:29.977Z,3.10
2018-08-09T10:07:34.217Z,2.90
2018-08-09T10:10:38.460Z,3.10
2018-08-09T10:13:42.721Z,2.37
2018-08-09T10:16:46.971Z,2.33
2018-08-09T10:19:51.249Z,1.87
2018-08-09T10:22:55.444Z,2.67
2018-08-09T10:25:59.686Z,2.40
2018-08-09T10:29:03.941Z,2.90
2018-08-09T10:32:08.171Z,3.17
2018-08-09T10:35:12.573Z,3.10
2018-08-09T10:38:16.794Z,3.40
2018-08-09T10:41:21.008Z,3.60
2018-08-09T10:44:25.232Z,3.07
2018-08-09T10:47:29.437Z,3.73
2018-08-09T10:50:33.675Z,4.23
2018-08-09T10:53:37.910Z,4.40
2018-08-09T10:56:42.128Z,4.93
2018-08-09T10:59:46.341Z,5.40
2018-08-09T11:02:50.552Z,4.47
2018-08-09T11:05:54.769Z,4.57
2018-08-09T11:08:59.009Z,3.50
2018-08-09T11:12:03.232Z,4.53
2018-08-09T11:15:10.653Z,4.23
2018-08-09T11:18:14.781Z,4.33
2018-08-09T11:21:19.025Z,4.27
2018-08-09T11:24:23.245Z,3.90
2018-08-09T11:27:27.457Z,4.87
2018-08-09T11:30:31.680Z,4.50
2018-08-09T11:33:35.933Z,3.87
2018-08-09T11:36:40.138Z,3.87
2018-08-09T11:39:44.351Z,3.57
2018-08-09T11:42:48.559Z,4.53
2018-08-09T11:45:52.780Z,4.50
2018-08-09T11:48:56.973Z,4.10
2018-08-09T11:52:01.186Z,4.43
2018-08-09T11:55:05.417Z,4.00
2018-08-09T11:58:09.695Z,3.70
2018-08-09T12:01:13.897Z,4.40
2018-08-09T12:04:18.189Z,4.63
2018-08-09T12:07:22.395Z,4.87
2018-08-09T12:10:26.616Z,4.13
2018-08-09T12:13:30.881Z,4.73
2018-08-09T12:16:35.468Z,4.70
2018-08-09T12:19:39.702Z,4.67
2018-08-09T12:22:43.931Z,4.43
2018-08-09T12:25:48.178Z,4.53
2018-08-09T12:28:52.378Z,5.17
2018-08-09T12:31:56.620Z,5.07
2018-08-09T12:35:00.841Z,4.70
2018-08-09T12:38:05.080Z,5.20
2018-08-09T12:41:09.309Z,4.93
2018-08-09T12:44:13.541Z,4.30
2018-08-09T12:47:17.741Z,4.20
2018-08-09T12:50:21.950Z,4.47
2018-08-09T12:53:26.201Z,4.17
2018-08-09T12:56:30.541Z,4.00
2018-08-09T12:59:34.756Z,4.10
2018-08-09T13:02:39.137Z,4.20
2018-08-09T13:05:43.425Z,3.70
2018-08-09T13:08:47.605Z,4.13
2018-08-09T13:11:51.842Z,4.10
2018-08-09T13:14:56.092Z,4.67
2018-08-09T13:18:00.305Z,5.03
2018-08-09T13:21:04.545Z,4.20
2018-08-09T13:24:08.801Z,4.93
2018-08-09T13:27:13.104Z,4.70
2018-08-09T13:30:17.354Z,4.07
2018-08-09T13:33:21.554Z,3.80
2018-08-09T13:36:26.153Z,3.83
2018-08-09T13:39:30.366Z,3.83
2018-08-09T13:42:34.621Z,3.20
2018-08-09T13:45:38.813Z,3.43
2018-08-09T13:48:43.027Z,2.77
2018-08-09T13:51:47.268Z,3.30
2018-08-09T13:54:51.506Z,3.13
2018-08-09T13:57:55.770Z,4.07
2018-08-09T14:00:59.973Z,3.60
2018-08-09T14:04:04.215Z,2.70
2018-08-09T14:07:08.937Z,3.50
2018-08-09T14:10:13.381Z,3.00
2018-08-09T14:13:17.596Z,3.40
2018-08-09T14:16:21.833Z,3.33
2018-08-09T14:19:26.056Z,3.27
2018-08-09T14:22:30.274Z,3.67
2018-08-09T14:25:34.475Z,4.07
2018-08-09T14:28:38.711Z,4.73
2018-08-09T14:31:42.933Z,4.10
2018-08-09T14:34:47.185Z,3.97
2018-08-09T14:37:51.487Z,4.27
2018-08-09T14:40:55.655Z,4.83
2018-08-09T14:43:59.868Z,4.67
2018-08-09T14:47:04.121Z,5.30
2018-08-09T14:50:08.519Z,4.47
2018-08-09T14:53:12.765Z,4.67
2018-08-09T14:56:16.996Z,5.60
2018-08-09T14:59:21.212Z,5.90
2018-08-09T15:02:25.613Z,5.63
2018-08-09T15:05:29.844Z,6.97
2018-08-09T15:08:34.052Z,7.00
2018-08-09T15:11:38.292Z,7.47
2018-08-09T15:14:42.510Z,6.83
2018-08-09T15:17:46.749Z,7.00
2018-08-09T15:20:50.999Z,6.80
2018-08-09T15:23:55.258Z,6.73
2018-08-09T15:26:59.475Z,6.87
2018-08-09T15:30:03.731Z,5.67
2018-08-09T15:33:07.985Z,6.47
2018-08-09T15:36:12.229Z,6.37
2018-08-09T15:39:16.896Z,5.63
2018-08-09T15:42:21.129Z,5.83
2018-08-09T15:45:25.340Z,5.77
2018-08-09T15:48:29.590Z,5.77
2018-08-09T15:51:33.817Z,5.70
2018-08-09T15:54:38.064Z,5.97
2018-08-09T15:57:42.293Z,7.53
2018-08-09T16:00:46.508Z,6.37
2018-08-09T16:03:50.778Z,6.70
2018-08-09T16:06:54.995Z,6.70
2018-08-09T16:09:59.229Z,7.10
2018-08-09T16:13:03.445Z,7.33
2018-08-09T16:16:07.754Z,8.80
2018-08-09T16:19:11.924Z,9.30
2018-08-09T16:22:16.159Z,9.57
2018-08-09T16:25:20.804Z,10.73
2018-08-09T16:28:25.058Z,11.43
2018-08-09T16:31:29.309Z,10.83
2018-08-09T16:34:33.553Z,9.83
2018-08-09T16:37:37.957Z,9.53
2018-08-09T16:40:42.203Z,9.30
2018-08-09T16:43:46.461Z,8.63
2018-08-09T16:46:50.748Z,8.90
2018-08-09T16:49:54.972Z,8.53
2018-08-09T16:52:59.216Z,8.57
2018-08-09T16:56:03.517Z,7.57
2018-08-09T16:59:07.741Z,6.87
2018-08-09T17:02:11.985Z,7.20
2018-08-09T17:05:21.589Z,6.20
2018-08-09T17:08:25.853Z,6.10
2018-08-09T17:11:30.063Z,5.40
2018-08-09T17:14:34.296Z,6.10
2018-08-09T17:17:38.569Z,5.37
2018-08-09T17:20:42.799Z,5.93
2018-08-09T17:23:47.046Z,5.57
2018-08-09T17:26:51.268Z,5.37
2018-08-09T17:29:55.489Z,5.23
2018-08-09T17:33:00.013Z,5.17
2018-08-09T17:36:04.253Z,4.47
2018-08-09T17:39:11.509Z,4.37
2018-08-09T17:42:15.763Z,3.80
2018-08-09T17:45:22.738Z,4.07
2018-08-09T17:48:26.989Z,4.10
2018-08-09T17:51:31.193Z,3.40
2018-08-09T17:54:35.412Z,3.60
2018-08-09T17:57:40.533Z,3.80
2018-08-09T18:00:44.794Z,3.90
2018-08-09T18:03:49.051Z,4.13
2018-08-09T18:06:53.276Z,3.50
2018-08-09T18:09:57.493Z,3.73
2018-08-09T18:13:01.785Z,3.90
2018-08-09T18:16:06.192Z,3.93
2018-08-09T18:19:10.443Z,3.90
2018-08-09T18:22:14.716Z,2.50
2018-08-09T18:25:18.913Z,1.47
2018-08-09T18:28:23.124Z,1.47
2018-08-09T18:31:27.305Z,2.70
2018-08-09T18:34:31.512Z,2.20
2018-08-09T18:37:35.720Z,2.50
2018-08-09T18:40:39.937Z,2.30
2018-08-09T18:43:44.193Z,2.60
2018-08-09T18:46:48.402Z,2.00
2018-08-09T18:49:52.612Z,2.40
2018-08-09T18:52:57.113Z,2.30
2018-08-09T18:56:01.341Z,2.50
2018-08-09T18:59:05.632Z,2.23
2018-08-09T19:02:09.865Z,2.03
2018-08-09T19:05:14.192Z,2.27
2018-08-09T19:08:18.385Z,2.40
2018-08-09T19:11:22.724Z,2.30
2018-08-09T19:14:26.942Z,2.30
2018-08-09T19:17:31.168Z,2.47
2018-08-09T19:20:36.356Z,2.90
2018-08-09T19:23:40.580Z,3.10
2018-08-09T19:26:44.874Z,2.67
2018-08-09T19:29:49.197Z,2.57
2018-08-09T19:32:53.467Z,2.40
2018-08-09T19:35:57.720Z,2.60
2018-08-09T19:39:02.055Z,2.97
2018-08-09T19:42:06.194Z,2.80
2018-08-09T19:45:14.402Z,3.03
2018-08-09T19:48:18.679Z,8.27
2018-08-09T19:51:22.909Z,14.23
2018-08-09T19:54:27.129Z,11.70
2018-08-09T19:57:31.369Z,11.17
2018-08-09T20:00:35.604Z,9.33
2018-08-09T20:03:39.854Z,7.10
2018-08-09T20:06:44.138Z,6.17
2018-08-09T20:09:48.353Z,5.37
2018-08-09T20:12:52.565Z,5.63
2018-08-09T20:15:56.841Z,4.83
2018-08-09T20:19:01.054Z,4.63
2018-08-09T20:22:07.483Z,4.50
2018-08-09T20:25:12.615Z,4.17
2018-08-09T20:28:16.817Z,4.00
2018-08-09T20:31:21.045Z,4.40
2018-08-09T20:34:25.257Z,3.50
2018-08-09T20:37:29.464Z,4.00
2018-08-09T20:40:33.685Z,3.93
2018-08-09T20:43:37.885Z,3.57
2018-08-09T20:46:42.118Z,3.57
2018-08-09T20:49:46.318Z,3.33
2018-08-09T20:52:51.103Z,3.60
2018-08-09T20:55:55.340Z,3.00
2018-08-09T20:58:59.587Z,3.00
2018-08-09T21:02:03.868Z,2.70
2018-08-09T21:05:08.073Z,3.13
2018-08-09T21:08:12.298Z,3.63
2018-08-09T21:11:16.541Z,3.90
2018-08-09T21:14:20.780Z,6.13
2018-08-09T21:17:24.992Z,10.00
2018-08-09T21:20:29.214Z,13.50
2018-08-09T21:23:33.462Z,14.17
2018-08-09T21:26:37.674Z,15.77
2018-08-09T21:29:42.660Z,15.30
2018-08-09T21:32:47.368Z,12.43
2018-08-09T21:35:51.628Z,11.87
2018-08-09T21:38:55.906Z,10.80
2018-08-09T21:42:00.126Z,9.87
2018-08-09T21:45:05.614Z,9.10
2018-08-09T21:48:09.887Z,8.83
2018-08-09T21:51:14.106Z,8.77
2018-08-09T21:54:18.384Z,9.37
2018-08-09T21:57:22.637Z,8.53
2018-08-09T22:01:04.228Z,9.33
2018-08-09T22:04:08.442Z,8.67
2018-08-09T22:07:17.857Z,9.20
2018-08-09T22:10:27.402Z,8.73
2018-08-09T22:13:36.973Z,10.37
2018-08-09T22:16:46.529Z,10.20
2018-08-09T22:19:56.027Z,10.10
2018-08-09T22:23:00.258Z,10.33
2018-08-09T22:26:04.499Z,10.47
2018-08-09T22:29:08.754Z,10.63
2018-08-09T22:32:12.957Z,10.50
2018-08-09T22:35:17.215Z,10.67
2018-08-09T22:38:21.426Z,10.40
2018-08-09T22:41:25.649Z,10.70
2018-08-09T22:44:29.894Z,10.77
2018-08-09T22:47:34.116Z,11.00
2018-08-09T22:50:38.341Z,10.97
2018-08-09T22:53:42.601Z,11.43
2018-08-09T22:56:46.821Z,11.60
2018-08-09T22:59:51.040Z,10.87
2018-08-09T23:02:55.328Z,12.37
2018-08-09T23:05:59.574Z,11.73
2018-08-09T23:09:04.126Z,12.50
2018-08-09T23:12:08.367Z,12.67
2018-08-09T23:15:12.789Z,12.53
2018-08-09T23:18:17.009Z,11.93
2018-08-09T23:21:21.205Z,11.97
2018-08-09T23:24:25.430Z,11.00
2018-08-09T23:27:29.644Z,12.10
2018-08-09T23:30:33.856Z,12.37
2018-08-09T23:33:38.088Z,12.47
2018-08-09T23:36:42.305Z,11.60
2018-08-09T23:39:46.542Z,11.17
2018-08-09T23:42:50.766Z,11.37
2018-08-09T23:45:54.989Z,11.20
2018-08-09T23:48:59.207Z,11.13
2018-08-09T23:52:03.514Z,11.73
2018-08-09T23:55:13.565Z,11.27
2018-08-09T23:58:49.217Z,10.80
